RJCO(METAR)
05/26 20:00
METAR RJCO 261100Z 32006KT 9999 FEW015 BKN020 10/07 Q1013 RMK 1ST015
5CU020 A2993=
戻る
トップページへ戻る
IMOC Co,.Ltd.